Wetterdaten: Woche 20.08.18 - 26.08.18 (KW34)
Datum Zeit Temperatur Luftfeuchte Luftdruck Niederschlag Windrichtung Sonnenschein Solar Wind
20.08.2018 00:00 20,4 C 70 % 1016,6 hPa 0,0 l/m N 0,00 h 0 W/m 0,4 km/h (0 Bft)
20.08.2018 01:00 19,0 C 76 % 1016,4 hPa 0,0 l/m N 0,00 h 0 W/m 0,0 km/h (0 Bft)
20.08.2018 02:00 18,4 C 77 % 1016,4 hPa 0,0 l/m N 0,00 h 0 W/m 0,3 km/h (0 Bft)
20.08.2018 03:00 17,7 C 80 % 1016,4 hPa 0,0 l/m N 0,00 h 0 W/m 0,0 km/h (0 Bft)
20.08.2018 04:00 16,8 C 84 % 1016,4 hPa 0,0 l/m N 0,00 h 0 W/m 0,0 km/h (0 Bft)
20.08.2018 05:00 16,0 C 87 % 1016,3 hPa 0,0 l/m N 0,00 h 0 W/m 0,0 km/h (0 Bft)
20.08.2018 06:00 15,5 C 87 % 1016,4 hPa 0,0 l/m N 0,00 h 11 W/m 0,0 km/h (0 Bft)
20.08.2018 07:00 15,9 C 87 % 1016,6 hPa 0,0 l/m N 0,08 h 76 W/m 0,3 km/h (0 Bft)
20.08.2018 08:00 17,9 C 83 % 1016,6 hPa 0,0 l/m N 1,00 h 256 W/m 0,0 km/h (0 Bft)
20.08.2018 09:00 21,7 C 67 % 1016,7 hPa 0,0 l/m N 0,75 h 362 W/m 0,3 km/h (0 Bft)
20.08.2018 10:00 24,2 C 54 % 1016,6 hPa 0,0 l/m O-NO 0,92 h 530 W/m 6,0 km/h (2 Bft)
20.08.2018 11:00 25,8 C 48 % 1016,3 hPa 0,0 l/m O 1,00 h 694 W/m 7,9 km/h (2 Bft)
20.08.2018 12:00 27,1 C 46 % 1015,9 hPa 0,0 l/m O-SO 1,00 h 785 W/m 9,8 km/h (2 Bft)
20.08.2018 13:00 28,1 C 44 % 1015,7 hPa 0,0 l/m NO 0,75 h 735 W/m 9,7 km/h (2 Bft)
20.08.2018 14:00 27,5 C 45 % 1015,3 hPa 0,0 l/m W 0,25 h 341 W/m 5,8 km/h (2 Bft)
20.08.2018 15:00 28,9 C 40 % 1014,7 hPa 0,0 l/m W 0,92 h 712 W/m 5,9 km/h (2 Bft)
20.08.2018 16:00 30,0 C 37 % 1014,3 hPa 0,0 l/m N-NO 1,00 h 604 W/m 9,7 km/h (2 Bft)
20.08.2018 17:00 29,5 C 39 % 1013,9 hPa 0,0 l/m N-NO 0,75 h 347 W/m 8,3 km/h (2 Bft)
20.08.2018 18:00 28,4 C 41 % 1013,5 hPa 0,0 l/m N-NO 0,58 h 177 W/m 6,3 km/h (2 Bft)
20.08.2018 19:00 27,5 C 44 % 1013,6 hPa 0,0 l/m N-NO 0,42 h 71 W/m 5,5 km/h (1 Bft)
20.08.2018 20:00 25,6 C 51 % 1014,3 hPa 0,0 l/m N-NO 0,25 h 15 W/m 11,7 km/h (2 Bft)
20.08.2018 21:00 23,0 C 60 % 1015,1 hPa 0,0 l/m N 0,00 h 0 W/m 2,1 km/h (1 Bft)
20.08.2018 22:00 21,2 C 67 % 1015,6 hPa 0,0 l/m N 0,00 h 0 W/m 3,2 km/h (1 Bft)
20.08.2018 23:00 20,0 C 73 % 1015,9 hPa 0,0 l/m N 0,00 h 0 W/m 0,8 km/h (0 Bft)
21.08.2018 00:00 19,1 C 77 % 1016,2 hPa 0,0 l/m N 0,00 h 0 W/m 0,0 km/h (0 Bft)
21.08.2018 01:00 18,3 C 81 % 1016,3 hPa 0,0 l/m N 0,00 h 0 W/m 0,7 km/h (0 Bft)
21.08.2018 02:00 17,9 C 82 % 1016,2 hPa 0,0 l/m N-NO 0,00 h 0 W/m 2,3 km/h (1 Bft)
21.08.2018 03:00 17,4 C 84 % 1016,3 hPa 0,0 l/m N 0,00 h 0 W/m 0,0 km/h (0 Bft)
21.08.2018 04:00 16,8 C 87 % 1016,3 hPa 0,0 l/m N 0,00 h 0 W/m 0,0 km/h (0 Bft)
21.08.2018 05:00 16,2 C 89 % 1015,9 hPa 0,0 l/m N 0,00 h 0 W/m 0,0 km/h (0 Bft)
21.08.2018 06:00 16,0 C 90 % 1016,1 hPa 0,0 l/m N 0,17 h 15 W/m 1,1 km/h (0 Bft)
21.08.2018 07:00 16,8 C 87 % 1016,5 hPa 0,0 l/m N-NO 0,08 h 68 W/m 2,8 km/h (1 Bft)
21.08.2018 08:00 18,7 C 81 % 1016,4 hPa 0,0 l/m N 1,00 h 236 W/m 1,7 km/h (1 Bft)
21.08.2018 09:00 21,4 C 72 % 1016,2 hPa 0,0 l/m N-NO 0,83 h 389 W/m 5,8 km/h (1 Bft)
21.08.2018 10:00 23,8 C 63 % 1015,9 hPa 0,0 l/m O 0,92 h 525 W/m 13,8 km/h (3 Bft)
21.08.2018 11:00 25,8 C 57 % 1015,8 hPa 0,0 l/m O 1,00 h 689 W/m 16,8 km/h (3 Bft)
21.08.2018 12:00 27,3 C 52 % 1015,5 hPa 0,0 l/m O 1,00 h 764 W/m 16,5 km/h (3 Bft)
21.08.2018 13:00 28,2 C 49 % 1015,1 hPa 0,0 l/m NO 0,92 h 760 W/m 14,8 km/h (3 Bft)
21.08.2018 14:00 28,8 C 47 % 1014,6 hPa 0,0 l/m O-NO 0,92 h 765 W/m 16,1 km/h (3 Bft)
21.08.2018 15:00 29,3 C 45 % 1014,0 hPa 0,0 l/m NO 0,83 h 692 W/m 13,3 km/h (3 Bft)
21.08.2018 16:00 30,0 C 42 % 1013,7 hPa 0,0 l/m O 1,00 h 575 W/m 12,9 km/h (3 Bft)
21.08.2018 17:00 29,8 C 41 % 1013,2 hPa 0,0 l/m NO 1,00 h 410 W/m 14,0 km/h (3 Bft)
21.08.2018 18:00 29,2 C 42 % 1013,1 hPa 0,0 l/m NO 0,92 h 225 W/m 10,6 km/h (2 Bft)
21.08.2018 19:00 27,7 C 46 % 1013,4 hPa 0,0 l/m NO 0,17 h 60 W/m 6,3 km/h (2 Bft)
21.08.2018 20:00 25,8 C 53 % 1013,7 hPa 0,0 l/m N 0,08 h 11 W/m 1,5 km/h (1 Bft)
21.08.2018 21:00 22,3 C 65 % 1014,3 hPa 0,0 l/m N 0,00 h 0 W/m 0,0 km/h (0 Bft)
21.08.2018 22:00 20,7 C 71 % 1014,5 hPa 0,0 l/m N 0,00 h 0 W/m 0,0 km/h (0 Bft)
21.08.2018 23:00 19,6 C 75 % 1014,7 hPa 0,0 l/m O-NO 0,00 h 0 W/m 1,6 km/h (1 Bft)
22.08.2018 00:00 18,5 C 80 % 1014,8 hPa 0,0 l/m N 0,00 h 0 W/m 0,0 km/h (0 Bft)
22.08.2018 01:00 17,8 C 83 % 1014,8 hPa 0,0 l/m N 0,00 h 0 W/m 0,0 km/h (0 Bft)
22.08.2018 02:00 17,2 C 84 % 1014,5 hPa 0,0 l/m N 0,00 h 0 W/m 0,0 km/h (0 Bft)
22.08.2018 03:00 16,1 C 88 % 1014,2 hPa 0,0 l/m N 0,00 h 0 W/m 0,0 km/h (0 Bft)
22.08.2018 04:00 15,8 C 90 % 1014,0 hPa 0,0 l/m N 0,00 h 0 W/m 0,0 km/h (0 Bft)
22.08.2018 05:00 15,6 C 88 % 1014,0 hPa 0,0 l/m N 0,00 h 0 W/m 0,0 km/h (0 Bft)
22.08.2018 06:00 15,3 C 88 % 1014,4 hPa 0,0 l/m N 0,08 h 17 W/m 0,0 km/h (0 Bft)
22.08.2018 07:00 15,8 C 87 % 1014,5 hPa 0,0 l/m N 0,17 h 78 W/m 0,0 km/h (0 Bft)
22.08.2018 08:00 18,9 C 77 % 1014,8 hPa 0,0 l/m N 1,00 h 259 W/m 0,0 km/h (0 Bft)
22.08.2018 09:00 21,4 C 69 % 1014,6 hPa 0,0 l/m O-NO 0,92 h 387 W/m 1,7 km/h (1 Bft)
22.08.2018 10:00 23,5 C 65 % 1014,6 hPa 0,0 l/m O 0,92 h 513 W/m 4,8 km/h (1 Bft)
22.08.2018 11:00 25,9 C 60 % 1014,4 hPa 0,0 l/m O-SO 1,00 h 683 W/m 8,7 km/h (2 Bft)
22.08.2018 12:00 28,0 C 51 % 1013,9 hPa 0,0 l/m SO 1,00 h 762 W/m 7,4 km/h (2 Bft)
22.08.2018 13:00 29,4 C 46 % 1013,5 hPa 0,0 l/m S 1,00 h 789 W/m 9,0 km/h (2 Bft)
22.08.2018 14:00 30,8 C 41 % 1013,2 hPa 0,0 l/m S-SO 1,00 h 766 W/m 7,4 km/h (2 Bft)
22.08.2018 15:00 31,2 C 38 % 1012,7 hPa 0,0 l/m SW 0,92 h 646 W/m 10,5 km/h (2 Bft)
22.08.2018 16:00 30,7 C 38 % 1012,1 hPa 0,0 l/m SW 0,58 h 405 W/m 5,3 km/h (1 Bft)
22.08.2018 17:00 30,5 C 37 % 1011,5 hPa 0,0 l/m SW 0,75 h 320 W/m 2,1 km/h (1 Bft)
22.08.2018 18:00 30,1 C 40 % 1011,2 hPa 0,0 l/m N 0,50 h 159 W/m 1,3 km/h (1 Bft)
22.08.2018 19:00 26,6 C 50 % 1011,2 hPa 0,0 l/m N 0,00 h 45 W/m 1,5 km/h (1 Bft)
22.08.2018 20:00 25,0 C 55 % 1011,6 hPa 0,0 l/m SW 0,08 h 10 W/m 4,7 km/h (1 Bft)
22.08.2018 21:00 23,4 C 60 % 1012,3 hPa 0,0 l/m SW 0,00 h 0 W/m 2,4 km/h (1 Bft)
22.08.2018 22:00 22,6 C 63 % 1012,5 hPa 0,0 l/m W-SW 0,00 h 0 W/m 2,7 km/h (1 Bft)
22.08.2018 23:00 21,9 C 65 % 1012,4 hPa 0,0 l/m W-NW 0,00 h 0 W/m 5,5 km/h (1 Bft)
23.08.2018 00:00 21,0 C 68 % 1012,3 hPa 0,0 l/m N 0,00 h 0 W/m 1,5 km/h (1 Bft)
23.08.2018 01:00 19,5 C 75 % 1012,5 hPa 0,0 l/m W-SW 0,00 h 0 W/m 3,8 km/h (1 Bft)
23.08.2018 02:00 20,8 C 69 % 1012,4 hPa 0,0 l/m W 0,00 h 0 W/m 3,9 km/h (1 Bft)
23.08.2018 03:00 18,5 C 78 % 1012,3 hPa 0,0 l/m N 0,00 h 0 W/m 0,4 km/h (0 Bft)
23.08.2018 04:00 17,7 C 82 % 1012,0 hPa 0,0 l/m N 0,00 h 0 W/m 0,4 km/h (0 Bft)
23.08.2018 05:00 17,0 C 86 % 1011,8 hPa 0,0 l/m N 0,00 h 0 W/m 0,0 km/h (0 Bft)
23.08.2018 06:00 17,1 C 86 % 1011,7 hPa 0,0 l/m N 0,00 h 13 W/m 0,1 km/h (0 Bft)
23.08.2018 07:00 18,0 C 85 % 1011,8 hPa 0,0 l/m W-SW 0,08 h 69 W/m 2,4 km/h (1 Bft)
23.08.2018 08:00 20,3 C 79 % 1011,6 hPa 0,0 l/m SW 0,33 h 161 W/m 10,8 km/h (2 Bft)
23.08.2018 09:00 21,5 C 76 % 1011,5 hPa 0,0 l/m SW 0,00 h 207 W/m 9,3 km/h (2 Bft)
23.08.2018 10:00 22,3 C 72 % 1011,6 hPa 0,0 l/m SW 0,00 h 266 W/m 8,6 km/h (2 Bft)
23.08.2018 11:00 24,1 C 67 % 1011,4 hPa 0,0 l/m SW 0,25 h 409 W/m 5,1 km/h (1 Bft)
23.08.2018 12:00 25,8 C 61 % 1011,1 hPa 0,0 l/m S-SW 0,50 h 535 W/m 6,7 km/h (2 Bft)
23.08.2018 13:00 27,9 C 53 % 1010,6 hPa 0,0 l/m S-SW 1,00 h 831 W/m 9,3 km/h (2 Bft)
23.08.2018 14:00 28,4 C 50 % 1009,7 hPa 0,0 l/m S-SW 0,67 h 641 W/m 7,9 km/h (2 Bft)
23.08.2018 15:00 28,9 C 47 % 1009,2 hPa 0,0 l/m SW 0,50 h 445 W/m 14,4 km/h (3 Bft)
23.08.2018 16:00 22,3 C 67 % 1009,9 hPa 0,0 l/m N 0,00 h 74 W/m 22,9 km/h (4 Bft)
23.08.2018 17:00 19,6 C 78 % 1009,8 hPa 0,0 l/m N-NO 0,00 h 79 W/m 6,2 km/h (2 Bft)
23.08.2018 18:00 20,0 C 76 % 1009,9 hPa 0,0 l/m SW 0,00 h 66 W/m 3,8 km/h (1 Bft)
23.08.2018 19:00 19,8 C 78 % 1009,3 hPa 0,0 l/m N 0,00 h 25 W/m 0,5 km/h (0 Bft)
23.08.2018 20:00 19,1 C 84 % 1009,9 hPa 0,0 l/m SW 0,00 h 9 W/m 8,3 km/h (2 Bft)
23.08.2018 21:00 18,7 C 87 % 1010,0 hPa 0,0 l/m S-SW 0,00 h 0 W/m 6,3 km/h (2 Bft)
23.08.2018 22:00 18,4 C 85 % 1010,2 hPa 0,0 l/m S-SW 0,00 h 0 W/m 7,0 km/h (2 Bft)
23.08.2018 23:00 18,3 C 84 % 1010,4 hPa 0,0 l/m S-SW 0,00 h 0 W/m 2,4 km/h (1 Bft)
24.08.2018 00:00 17,3 C 88 % 1009,9 hPa 0,0 l/m N 0,00 h 0 W/m 0,9 km/h (0 Bft)
24.08.2018 01:00 17,3 C 90 % 1009,8 hPa 0,0 l/m S-SW 0,00 h 0 W/m 8,6 km/h (2 Bft)
24.08.2018 02:00 18,0 C 90 % 1010,2 hPa 0,0 l/m SW 0,00 h 0 W/m 11,4 km/h (2 Bft)
24.08.2018 03:00 17,8 C 88 % 1009,8 hPa 0,0 l/m SW 0,00 h 0 W/m 7,5 km/h (2 Bft)
24.08.2018 04:00 17,8 C 85 % 1009,7 hPa 0,0 l/m W 0,00 h 0 W/m 11,6 km/h (2 Bft)
24.08.2018 05:00 17,1 C 89 % 1009,4 hPa 0,0 l/m N 0,00 h 0 W/m 1,9 km/h (1 Bft)
24.08.2018 06:00 16,2 C 92 % 1009,6 hPa 0,0 l/m N 0,17 h 17 W/m 0,5 km/h (0 Bft)
24.08.2018 07:00 16,6 C 92 % 1010,0 hPa 0,0 l/m W-SW 0,00 h 64 W/m 5,1 km/h (1 Bft)
24.08.2018 08:00 16,9 C 92 % 1010,3 hPa 1,6 l/m SW 0,00 h 59 W/m 13,8 km/h (3 Bft)
24.08.2018 09:00 17,3 C 94 % 1010,5 hPa 0,0 l/m SW 0,00 h 121 W/m 11,2 km/h (2 Bft)
24.08.2018 10:00 17,8 C 91 % 1010,9 hPa 0,0 l/m W-SW 0,00 h 151 W/m 10,8 km/h (2 Bft)
24.08.2018 11:00 19,9 C 84 % 1010,8 hPa 0,0 l/m W-SW 0,83 h 556 W/m 22,6 km/h (4 Bft)
24.08.2018 12:00 21,7 C 74 % 1010,2 hPa 0,0 l/m W-SW 0,83 h 682 W/m 29,3 km/h (5 Bft)
24.08.2018 13:00 23,3 C 64 % 1009,6 hPa 0,0 l/m W-SW 0,83 h 722 W/m 28,3 km/h (4 Bft)
24.08.2018 14:00 23,2 C 60 % 1009,3 hPa 0,0 l/m NW 0,08 h 233 W/m 16,1 km/h (3 Bft)
24.08.2018 15:00 22,3 C 65 % 1008,9 hPa 0,0 l/m N-NW 0,00 h 233 W/m 18,0 km/h (3 Bft)
24.08.2018 16:00 19,9 C 75 % 1009,3 hPa 0,0 l/m N 0,25 h 305 W/m 24,1 km/h (4 Bft)
24.08.2018 17:00 18,7 C 74 % 1009,8 hPa 0,0 l/m N 0,33 h 206 W/m 26,3 km/h (4 Bft)
24.08.2018 18:00 17,0 C 77 % 1010,3 hPa 0,0 l/m N 0,00 h 75 W/m 21,6 km/h (4 Bft)
24.08.2018 19:00 16,0 C 75 % 1010,9 hPa 0,0 l/m N-NW 0,00 h 20 W/m 9,4 km/h (2 Bft)
24.08.2018 20:00 15,4 C 77 % 1011,6 hPa 0,0 l/m N-NW 0,00 h 7 W/m 0,9 km/h (0 Bft)
24.08.2018 21:00 14,7 C 77 % 1012,4 hPa 0,0 l/m N 0,00 h 0 W/m 3,5 km/h (1 Bft)
24.08.2018 22:00 14,3 C 77 % 1012,6 hPa 0,0 l/m W-NW 0,00 h 0 W/m 6,9 km/h (2 Bft)
24.08.2018 23:00 14,1 C 79 % 1012,3 hPa 0,0 l/m N 0,00 h 0 W/m 1,3 km/h (1 Bft)
25.08.2018 00:00 14,2 C 79 % 1012,2 hPa 0,0 l/m W-NW 0,00 h 0 W/m 4,0 km/h (1 Bft)
25.08.2018 01:00 14,1 C 79 % 1011,9 hPa 0,0 l/m N 0,00 h 0 W/m 0,4 km/h (0 Bft)
25.08.2018 02:00 14,1 C 79 % 1012,0 hPa 0,0 l/m W-NW 0,00 h 0 W/m 2,3 km/h (1 Bft)
25.08.2018 03:00 13,8 C 81 % 1011,6 hPa 0,0 l/m N 0,00 h 0 W/m 0,9 km/h (0 Bft)
25.08.2018 04:00 13,1 C 85 % 1011,5 hPa 0,0 l/m N 0,00 h 0 W/m 0,0 km/h (0 Bft)
25.08.2018 05:00 12,5 C 90 % 1011,4 hPa 0,0 l/m N 0,00 h 0 W/m 0,7 km/h (0 Bft)
25.08.2018 06:00 12,4 C 93 % 1011,3 hPa 0,0 l/m N 0,00 h 10 W/m 0,3 km/h (0 Bft)
25.08.2018 07:00 12,8 C 92 % 1011,1 hPa 0,0 l/m W 0,00 h 35 W/m 3,0 km/h (1 Bft)
25.08.2018 08:00 13,5 C 87 % 1011,0 hPa 0,0 l/m W 0,25 h 126 W/m 7,3 km/h (2 Bft)
25.08.2018 09:00 14,9 C 80 % 1010,8 hPa 0,0 l/m SW 0,00 h 179 W/m 15,3 km/h (3 Bft)
25.08.2018 10:00 15,6 C 72 % 1011,1 hPa 0,0 l/m W-SW 0,08 h 249 W/m 20,8 km/h (4 Bft)
25.08.2018 11:00 15,6 C 67 % 1011,2 hPa 0,0 l/m W 0,00 h 171 W/m 17,3 km/h (3 Bft)
25.08.2018 12:00 15,3 C 71 % 1011,4 hPa 0,0 l/m W-NW 0,00 h 211 W/m 10,2 km/h (2 Bft)
25.08.2018 13:00 12,9 C 84 % 1012,0 hPa 0,6 l/m W 0,00 h 153 W/m 13,7 km/h (3 Bft)
25.08.2018 14:00 12,5 C 89 % 1011,8 hPa 0,2 l/m W 0,00 h 83 W/m 5,4 km/h (1 Bft)
25.08.2018 15:00 12,3 C 92 % 1011,7 hPa 0,2 l/m W 0,00 h 77 W/m 5,4 km/h (1 Bft)
25.08.2018 16:00 12,2 C 91 % 1011,7 hPa 0,4 l/m W-SW 0,00 h 86 W/m 6,7 km/h (2 Bft)
25.08.2018 17:00 12,2 C 92 % 1011,9 hPa 0,2 l/m W-SW 0,00 h 87 W/m 6,2 km/h (2 Bft)
25.08.2018 18:00 12,2 C 93 % 1012,1 hPa 0,0 l/m W-SW 0,00 h 57 W/m 9,5 km/h (2 Bft)
25.08.2018 19:00 11,8 C 94 % 1012,5 hPa 0,2 l/m SW 0,00 h 17 W/m 9,0 km/h (2 Bft)
25.08.2018 20:00 11,6 C 94 % 1013,0 hPa 0,0 l/m SW 0,00 h 6 W/m 3,2 km/h (1 Bft)
25.08.2018 21:00 11,1 C 95 % 1013,5 hPa 0,0 l/m N 0,00 h 0 W/m 0,9 km/h (0 Bft)
25.08.2018 22:00 10,7 C 94 % 1014,1 hPa 0,0 l/m N 0,00 h 0 W/m 0,0 km/h (0 Bft)
25.08.2018 23:00 10,6 C 95 % 1014,4 hPa 0,0 l/m W-SW 0,00 h 0 W/m 2,4 km/h (1 Bft)
26.08.2018 00:00 10,1 C 93 % 1014,5 hPa 0,0 l/m W-SW 0,00 h 0 W/m 2,1 km/h (1 Bft)
26.08.2018 01:00 9,6 C 94 % 1014,7 hPa 0,0 l/m N 0,00 h 0 W/m 0,0 km/h (0 Bft)
26.08.2018 02:00 8,3 C 95 % 1014,6 hPa 0,0 l/m N 0,00 h 0 W/m 0,0 km/h (0 Bft)
26.08.2018 03:00 7,2 C 96 % 1015,0 hPa 0,0 l/m N 0,00 h 0 W/m 0,0 km/h (0 Bft)
26.08.2018 04:00 6,5 C 97 % 1015,5 hPa 0,0 l/m N 0,00 h 0 W/m 0,0 km/h (0 Bft)
26.08.2018 05:00 5,8 C 97 % 1015,5 hPa 0,2 l/m N 0,00 h 0 W/m 0,0 km/h (0 Bft)
26.08.2018 06:00 5,3 C 98 % 1016,0 hPa 0,0 l/m N 0,00 h 11 W/m 0,0 km/h (0 Bft)
26.08.2018 07:00 5,5 C 98 % 1016,7 hPa 0,0 l/m N 0,58 h 104 W/m 0,0 km/h (0 Bft)
26.08.2018 08:00 6,3 C 98 % 1017,2 hPa 0,0 l/m N 0,17 h 148 W/m 0,1 km/h (0 Bft)
26.08.2018 09:00 8,1 C 99 % 1017,3 hPa 0,0 l/m W-SW 0,17 h 241 W/m 2,5 km/h (1 Bft)
26.08.2018 10:00 10,7 C 95 % 1017,4 hPa 0,0 l/m W-SW 0,92 h 497 W/m 4,5 km/h (1 Bft)
26.08.2018 11:00 13,9 C 75 % 1017,5 hPa 0,0 l/m S-SO 0,92 h 679 W/m 7,8 km/h (2 Bft)
26.08.2018 12:00 15,1 C 61 % 1017,1 hPa 0,0 l/m SW 0,33 h 518 W/m 6,7 km/h (2 Bft)
26.08.2018 13:00 16,7 C 51 % 1016,8 hPa 0,0 l/m S 0,75 h 754 W/m 5,8 km/h (1 Bft)
26.08.2018 14:00 15,9 C 51 % 1016,4 hPa 0,0 l/m S 0,00 h 220 W/m 2,8 km/h (1 Bft)
26.08.2018 15:00 16,8 C 46 % 1016,0 hPa 0,0 l/m S-SW 0,75 h 622 W/m 4,3 km/h (1 Bft)
26.08.2018 16:00 18,7 C 38 % 1015,6 hPa 0,0 l/m S-SO 1,00 h 602 W/m 7,4 km/h (2 Bft)
26.08.2018 17:00 17,9 C 40 % 1015,4 hPa 0,0 l/m SO 0,50 h 220 W/m 6,0 km/h (2 Bft)
26.08.2018 18:00 17,8 C 41 % 1014,9 hPa 0,0 l/m SO 0,83 h 209 W/m 5,6 km/h (1 Bft)
26.08.2018 19:00 16,3 C 47 % 1014,8 hPa 0,0 l/m N 0,17 h 41 W/m 2,7 km/h (1 Bft)
26.08.2018 20:00 12,2 C 66 % 1014,9 hPa 0,0 l/m N 0,00 h 6 W/m 0,0 km/h (0 Bft)
26.08.2018 21:00 10,7 C 71 % 1015,1 hPa 0,0 l/m N 0,00 h 0 W/m 0,0 km/h (0 Bft)
26.08.2018 22:00 9,8 C 75 % 1015,0 hPa 0,0 l/m N 0,00 h 0 W/m 0,0 km/h (0 Bft)
26.08.2018 23:00 9,4 C 80 % 1014,8 hPa 0,0 l/m N 0,00 h 0 W/m 0,0 km/h (0 Bft)
Min-Datum _ 26.08.18 20.08.18 24.08.18 - - - - 20.08.18
_ Min-Zeit 06:55 16:10 15:30 - - - - 00:05
Minimum _ 4,9 C 35 % 1008,7 hPa - - - - 0,0 km/h (0 Bft)
Max-Datum _ 22.08.18 26.08.18 26.08.18 24.08.18 - 20.08.18 26.08.18 24.08.18
_ Max-Zeit 15:45 08:45 11:10 08:40 - 07:55 12:10 13:35
Maximum _ 31,5 C 99 % 1017,6 hPa 1,6 l/m - 0,08 h 1060 W/m 38,6 km/h
SW (5 Bft)
Durchschnitt _ 18,9 C 73 % 1013,3 hPa #3,6 l/m SW #44:30 h 299 W/m 5,7 km/h (1 Bft)